Time;durP1;ratioP1;P1;durP2;ratioP2;P2;SDS_P1;SDS_P2;PMS_P1;PMS_P2;Temp;Humidity;BMP_temperature;BMP_pressure;BME280_temperature;BME280_humidity;BME280_pressure;Samples;Min_cycle;Max_cycle;Signal;HPM_P1;HPM_P2
2022/12/19 00:03:22;;;;;;;13.48;6.60;;;;;;;;;;8364632;28;20135;-88
2022/12/19 00:07:25;;;;;;;18.05;4.60;;;;;;;;;;8363420;28;20045;-88
2022/12/19 00:11:29;;;;;;;22.45;7.53;;;;;;;;;;8355943;28;20497;-88
2022/12/19 00:15:35;;;;;;;17.42;6.15;;;;;;;;;;8363545;28;20072;-82
2022/12/19 00:19:38;;;;;;;8.43;4.88;;;;;;;;;;8360231;28;20433;-90
2022/12/19 00:23:41;;;;;;;14.18;4.30;;;;;;;;;;8363665;28;20106;-88
2022/12/19 00:27:44;;;;;;;10.90;5.03;;;;;;;;;;8363734;28;20041;-89
2022/12/19 00:31:48;;;;;;;18.25;7.30;;;;;;;;;;8356347;28;20049;-82
2022/12/19 00:35:51;;;;;;;11.32;7.50;;;;;;;;;;8363866;28;20396;-86
2022/12/19 00:39:53;;;;;;;9.00;5.00;;;;;;;;;;8363331;28;20045;-82
2022/12/19 00:43:57;;;;;;;18.38;7.88;;;;;;;;;;8363051;28;20055;-85
2022/12/19 00:48:01;;;;;;;13.88;8.00;;;;;;;;;;8363184;28;20102;-82
2022/12/19 00:52:05;;;;;;;16.58;6.82;;;;;;;;;;8363185;28;20504;-88
2022/12/19 00:56:11;;;;;;;12.88;7.35;;;;;;;;;;8362976;28;20132;-88
2022/12/19 01:00:16;;;;;;;14.07;5.97;;;;;;;;;;8363437;28;20401;-82
2022/12/19 01:04:20;;;;;;;11.55;7.75;;;;;;;;;;8362729;28;20500;-82
2022/12/19 01:08:23;;;;;;;6.78;4.38;;;;;;;;;;8349265;28;20079;-87
2022/12/19 01:12:47;;;;;;;9.13;4.95;;;;;;;;;;8363399;28;20485;-89
2022/12/19 01:16:50;;;;;;;26.15;10.38;;;;;;;;;;8348353;28;20041;-80
2022/12/19 01:20:54;;;;;;;16.05;7.32;;;;;;;;;;8359531;28;20044;-82
2022/12/19 01:24:57;;;;;;;19.88;8.13;;;;;;;;;;8352362;28;20061;-86
2022/12/19 01:28:59;;;;;;;14.77;7.85;;;;;;;;;;8353527;28;20037;-89
2022/12/19 01:33:02;;;;;;;14.75;7.32;;;;;;;;;;8352920;28;20112;-89
2022/12/19 01:37:06;;;;;;;14.90;7.55;;;;;;;;;;8357948;28;20045;-82
2022/12/19 01:41:10;;;;;;;22.25;8.32;;;;;;;;;;8352157;28;20188;-88
2022/12/19 01:45:37;;;;;;;18.67;6.13;;;;;;;;;;8354357;28;20481;-86
2022/12/19 01:49:39;;;;;;;18.92;8.35;;;;;;;;;;8349115;28;20080;-89
2022/12/19 01:53:46;;;;;;;23.50;9.55;;;;;;;;;;8352115;28;20056;-84
2022/12/19 01:57:49;;;;;;;16.73;8.82;;;;;;;;;;8354300;28;20481;-89
2022/12/19 02:01:57;;;;;;;12.13;6.25;;;;;;;;;;8340967;28;20045;-82
2022/12/19 02:06:00;;;;;;;17.75;8.05;;;;;;;;;;8337750;28;20124;-83
2022/12/19 02:10:06;;;;;;;11.65;6.97;;;;;;;;;;8336985;28;20603;-87
2022/12/19 02:14:08;;;;;;;15.50;5.22;;;;;;;;;;8334241;28;20053;-88
2022/12/19 02:18:19;;;;;;;20.27;7.22;;;;;;;;;;8334511;28;20473;-89
2022/12/19 02:22:28;;;;;;;8.25;5.85;;;;;;;;;;8334552;28;20072;-90
2022/12/19 02:26:49;;;;;;;23.20;8.75;;;;;;;;;;8340071;28;20080;-86
2022/12/19 02:31:05;;;;;;;11.60;5.82;;;;;;;;;;8336021;28;20038;-86
2022/12/19 02:35:15;;;;;;;8.82;5.10;;;;;;;;;;8357691;28;20037;-89
2022/12/19 02:39:23;;;;;;;11.80;6.45;;;;;;;;;;8357992;28;20570;-85
2022/12/19 02:43:30;;;;;;;22.60;7.88;;;;;;;;;;8348772;28;20112;-88
2022/12/19 02:47:36;;;;;;;10.98;5.38;;;;;;;;;;8357336;28;20056;-84
2022/12/19 02:51:39;;;;;;;12.50;6.65;;;;;;;;;;8354687;28;20119;-85
2022/12/19 02:55:48;;;;;;;31.08;14.52;;;;;;;;;;8366241;28;20044;-88
2022/12/19 03:00:03;;;;;;;3.55;2.45;;;;;;;;;;8365711;28;20045;-86
2022/12/19 03:04:21;;;;;;;26.42;12.38;;;;;;;;;;8365689;28;20053;-85
2022/12/19 03:08:28;;;;;;;16.02;8.63;;;;;;;;;;8355269;28;20049;-83
2022/12/19 03:12:34;;;;;;;13.98;7.78;;;;;;;;;;8366222;28;20060;-81
2022/12/19 03:16:38;;;;;;;23.75;13.45;;;;;;;;;;8365621;28;20090;-84
2022/12/19 03:20:47;;;;;;;36.47;14.65;;;;;;;;;;8366009;28;20373;-80
2022/12/19 03:24:50;;;;;;;8.45;3.70;;;;;;;;;;8365460;28;20397;-81
2022/12/19 03:28:56;;;;;;;27.60;10.57;;;;;;;;;;8365617;28;20663;-87
2022/12/19 03:32:59;;;;;;;111.47;46.55;;;;;;;;;;8365609;28;20128;-82
2022/12/19 03:37:07;;;;;;;44.95;22.70;;;;;;;;;;8365692;28;20404;-82
2022/12/19 03:41:12;;;;;;;135.63;71.55;;;;;;;;;;8360444;28;20116;-87
2022/12/19 03:45:21;;;;;;;51.90;28.90;;;;;;;;;;8357319;28;20389;-86
2022/12/19 03:49:23;;;;;;;37.63;20.88;;;;;;;;;;8365305;28;20112;-87
2022/12/19 03:53:38;;;;;;;26.15;11.30;;;;;;;;;;8364887;28;20049;-87
2022/12/19 03:57:46;;;;;;;18.45;9.80;;;;;;;;;;8353202;28;20124;-88
2022/12/19 04:01:50;;;;;;;28.40;12.93;;;;;;;;;;8364534;28;20045;-88
2022/12/19 04:05:54;;;;;;;15.88;10.18;;;;;;;;;;8364372;28;20500;-86
2022/12/19 04:10:00;;;;;;;14.00;8.82;;;;;;;;;;8364313;28;20576;-84
2022/12/19 04:14:07;;;;;;;19.70;9.15;;;;;;;;;;8364173;28;20048;-85
2022/12/19 04:18:12;;;;;;;18.52;7.75;;;;;;;;;;8364083;28;20090;-89
2022/12/19 04:22:22;;;;;;;15.52;8.20;;;;;;;;;;8363894;28;20072;-86
2022/12/19 04:26:27;;;;;;;21.63;11.63;;;;;;;;;;8363337;28;20057;-86
2022/12/19 04:30:30;;;;;;;20.85;10.88;;;;;;;;;;8364278;28;20473;-81
2022/12/19 04:34:33;;;;;;;23.67;10.20;;;;;;;;;;8363471;28;20049;-88
2022/12/19 04:38:36;;;;;;;16.08;7.40;;;;;;;;;;8363562;28;20037;-83
2022/12/19 04:42:40;;;;;;;19.65;7.50;;;;;;;;;;8344857;28;20458;-86
2022/12/19 04:46:43;;;;;;;12.48;7.68;;;;;;;;;;8363240;28;20041;-88
2022/12/19 04:50:45;;;;;;;32.78;7.18;;;;;;;;;;8363087;28;20522;-85
2022/12/19 04:54:48;;;;;;;24.77;10.90;;;;;;;;;;8361266;28;20041;-88
2022/12/19 04:58:56;;;;;;;16.00;8.93;;;;;;;;;;8353190;28;20048;-87
2022/12/19 05:02:59;;;;;;;12.80;7.53;;;;;;;;;;8363460;28;20102;-84
2022/12/19 05:07:02;;;;;;;19.63;10.93;;;;;;;;;;8362599;28;20127;-87
2022/12/19 05:11:06;;;;;;;25.92;14.68;;;;;;;;;;8362457;28;20053;-85
2022/12/19 05:15:11;;;;;;;29.52;13.82;;;;;;;;;;8358150;28;20045;-88
2022/12/19 05:19:14;;;;;;;25.83;9.85;;;;;;;;;;8353175;28;20175;-87
2022/12/19 05:23:18;;;;;;;17.40;9.05;;;;;;;;;;8361792;28;20090;-79
2022/12/19 05:27:21;;;;;;;17.63;8.60;;;;;;;;;;8361966;28;20088;-84
2022/12/19 05:31:25;;;;;;;21.13;12.27;;;;;;;;;;8349654;28;20076;-80
2022/12/19 05:35:28;;;;;;;26.42;14.35;;;;;;;;;;8362127;28;20041;-81
2022/12/19 05:39:31;;;;;;;39.72;18.08;;;;;;;;;;8362551;28;20458;-87
2022/12/19 05:43:34;;;;;;;134.77;51.15;;;;;;;;;;8361993;28;20127;-88
2022/12/19 05:47:38;;;;;;;85.43;34.40;;;;;;;;;;8361911;28;20045;-87
2022/12/19 05:51:41;;;;;;;23.08;12.30;;;;;;;;;;8361603;28;20076;-88
2022/12/19 05:55:44;;;;;;;51.85;21.77;;;;;;;;;;8361887;28;20040;-81
2022/12/19 05:59:46;;;;;;;28.52;12.25;;;;;;;;;;8351363;28;20561;-88
2022/12/19 06:03:51;;;;;;;140.02;50.92;;;;;;;;;;8359378;28;20660;-85
2022/12/19 06:07:54;;;;;;;44.25;20.35;;;;;;;;;;8356765;28;20053;-87
2022/12/19 06:11:57;;;;;;;65.60;25.80;;;;;;;;;;8361842;28;20045;-87
2022/12/19 06:16:00;;;;;;;37.60;13.10;;;;;;;;;;8352175;28;20059;-83
2022/12/19 06:20:06;;;;;;;17.70;7.68;;;;;;;;;;8347676;28;20051;-81
2022/12/19 06:24:15;;;;;;;26.77;11.27;;;;;;;;;;8344377;28;20049;-82
2022/12/19 06:28:18;;;;;;;32.75;10.32;;;;;;;;;;8358916;28;20041;-81
2022/12/19 06:32:21;;;;;;;4.05;2.15;;;;;;;;;;8365185;28;20092;-87
2022/12/19 06:36:27;;;;;;;20.05;7.45;;;;;;;;;;8365490;28;20037;-86
2022/12/19 06:44:50;;;;;;;32.42;14.43;;;;;;;;;;8345704;28;20422;-82
2022/12/19 06:48:53;;;;;;;14.50;6.45;;;;;;;;;;8356223;28;20510;-84
2022/12/19 06:52:57;;;;;;;26.05;11.43;;;;;;;;;;8362539;28;20053;-88
2022/12/19 06:57:00;;;;;;;23.60;8.27;;;;;;;;;;8363807;28;20072;-80
2022/12/19 07:01:03;;;;;;;5.72;2.92;;;;;;;;;;8365754;28;20060;-83
2022/12/19 07:05:08;;;;;;;48.90;16.67;;;;;;;;;;8354702;28;20045;-87
2022/12/19 07:09:12;;;;;;;75.65;28.20;;;;;;;;;;8364386;28;20098;-83
2022/12/19 07:13:15;;;;;;;30.83;13.73;;;;;;;;;;8350991;28;20075;-89
2022/12/19 07:17:19;;;;;;;76.10;21.92;;;;;;;;;;8354378;28;20555;-87
2022/12/19 07:21:22;;;;;;;23.90;9.70;;;;;;;;;;8338750;28;20407;-89
2022/12/19 07:25:26;;;;;;;29.67;12.77;;;;;;;;;;8358453;28;20156;-83
2022/12/19 07:29:29;;;;;;;31.27;14.75;;;;;;;;;;8354437;28;20404;-82
2022/12/19 07:33:32;;;;;;;27.20;10.15;;;;;;;;;;8365320;28;20045;-87
2022/12/19 07:37:35;;;;;;;26.90;11.00;;;;;;;;;;8361269;28;20045;-87
2022/12/19 07:41:39;;;;;;;7.50;4.70;;;;;;;;;;8360612;28;20049;-87
2022/12/19 07:45:42;;;;;;;48.83;19.23;;;;;;;;;;8362782;28;20075;-80
2022/12/19 07:49:45;;;;;;;22.40;12.40;;;;;;;;;;8365030;28;20480;-88
2022/12/19 07:53:48;;;;;;;45.30;17.63;;;;;;;;;;8350835;28;20443;-84
2022/12/19 07:57:52;;;;;;;21.60;8.75;;;;;;;;;;8345835;28;20045;-82
2022/12/19 08:01:55;;;;;;;39.08;14.93;;;;;;;;;;8364478;28;20143;-87
2022/12/19 08:06:00;;;;;;;42.88;17.13;;;;;;;;;;8364274;28;20045;-88
2022/12/19 08:10:05;;;;;;;36.50;14.27;;;;;;;;;;8347840;28;20041;-87
2022/12/19 08:14:09;;;;;;;42.15;16.75;;;;;;;;;;8351407;28;20072;-87
2022/12/19 08:18:12;;;;;;;22.42;10.40;;;;;;;;;;8351902;28;20045;-83
2022/12/19 08:22:15;;;;;;;28.05;8.98;;;;;;;;;;8364151;28;20049;-85
2022/12/19 08:26:23;;;;;;;28.77;13.52;;;;;;;;;;8363341;28;20083;-88
2022/12/19 08:30:27;;;;;;;43.35;18.35;;;;;;;;;;8363823;28;20064;-86
2022/12/19 08:34:31;;;;;;;72.13;25.95;;;;;;;;;;8360564;28;20090;-82
2022/12/19 08:38:36;;;;;;;107.97;54.25;;;;;;;;;;8363241;28;20128;-89
2022/12/19 08:42:39;;;;;;;17.48;8.30;;;;;;;;;;8363029;28;20051;-91
2022/12/19 08:46:44;;;;;;;20.40;7.07;;;;;;;;;;8345566;28;20065;-83
2022/12/19 08:50:51;;;;;;;38.75;16.60;;;;;;;;;;8359635;28;20087;-88
2022/12/19 08:54:54;;;;;;;56.63;22.63;;;;;;;;;;8363112;28;20045;-89
2022/12/19 08:58:56;;;;;;;46.75;21.10;;;;;;;;;;8363538;28;20120;-89
2022/12/19 09:03:01;;;;;;;47.63;30.45;;;;;;;;;;8350624;28;20044;-86
2022/12/19 09:07:03;;;;;;;17.00;8.50;;;;;;;;;;8329707;28;20045;-88
2022/12/19 09:11:10;;;;;;;26.33;10.98;;;;;;;;;;8352474;28;20094;-88
2022/12/19 09:15:12;;;;;;;25.45;9.68;;;;;;;;;;8341573;28;20068;-89
2022/12/19 09:19:17;;;;;;;51.20;34.72;;;;;;;;;;8362808;28;20496;-88
2022/12/19 09:23:20;;;;;;;45.95;30.17;;;;;;;;;;8362364;28;20061;-82
2022/12/19 09:27:23;;;;;;;32.65;18.77;;;;;;;;;;8356007;28;20060;-89
2022/12/19 09:31:26;;;;;;;27.77;16.48;;;;;;;;;;8356017;28;20667;-83
2022/12/19 09:35:31;;;;;;;28.02;14.13;;;;;;;;;;8347351;28;20042;-87
2022/12/19 09:39:34;;;;;;;42.50;13.73;;;;;;;;;;8361002;28;20057;-89
2022/12/19 09:43:52;;;;;;;25.42;11.57;;;;;;;;;;8362051;28;20069;-89
2022/12/19 09:47:57;;;;;;;20.23;10.35;;;;;;;;;;8352703;28;20116;-89
2022/12/19 09:52:06;;;;;;;17.90;8.65;;;;;;;;;;8350439;28;20642;-87
2022/12/19 09:56:15;;;;;;;16.73;8.30;;;;;;;;;;8347500;28;20120;-87
2022/12/19 10:00:20;;;;;;;25.35;12.73;;;;;;;;;;8346628;28;20065;-86
2022/12/19 10:04:26;;;;;;;18.92;9.13;;;;;;;;;;8358914;28;20071;-86
2022/12/19 10:08:35;;;;;;;21.58;9.35;;;;;;;;;;8364174;28;20123;-88
2022/12/19 10:13:00;;;;;;;15.85;6.90;;;;;;;;;;8358821;28;20401;-88
2022/12/19 10:17:13;;;;;;;22.85;10.93;;;;;;;;;;8345479;28;20072;-91
2022/12/19 10:21:28;;;;;;;22.13;9.68;;;;;;;;;;8366800;28;20041;-90
2022/12/19 10:25:50;;;;;;;19.00;8.20;;;;;;;;;;8367051;28;20100;-85
2022/12/19 10:30:02;;;;;;;8.32;5.18;;;;;;;;;;8367164;28;20041;-83
2022/12/19 10:34:15;;;;;;;17.40;7.75;;;;;;;;;;8366176;28;20074;-89
2022/12/19 10:38:24;;;;;;;23.08;8.73;;;;;;;;;;8355760;28;20119;-87
2022/12/19 10:42:34;;;;;;;17.55;5.90;;;;;;;;;;8367183;28;20485;-83
2022/12/19 10:46:39;;;;;;;14.52;6.82;;;;;;;;;;8367008;28;20049;-84
2022/12/19 10:50:42;;;;;;;26.38;9.65;;;;;;;;;;8353174;28;20454;-83
2022/12/19 10:54:49;;;;;;;34.15;13.48;;;;;;;;;;8366588;28;20127;-89
2022/12/19 10:59:00;;;;;;;17.33;7.28;;;;;;;;;;8342683;28;20486;-85
2022/12/19 11:03:14;;;;;;;10.95;5.85;;;;;;;;;;8329516;28;20046;-83
2022/12/19 11:07:21;;;;;;;20.80;9.35;;;;;;;;;;8341440;28;20045;-82
2022/12/19 11:11:24;;;;;;;16.58;6.55;;;;;;;;;;8328634;28;20046;-83
2022/12/19 11:15:38;;;;;;;32.33;11.73;;;;;;;;;;8332356;28;20603;-82
2022/12/19 11:19:42;;;;;;;20.08;8.25;;;;;;;;;;8342356;28;20057;-82
2022/12/19 11:23:51;;;;;;;29.30;12.23;;;;;;;;;;8333214;28;20690;-85
2022/12/19 11:27:54;;;;;;;29.95;11.07;;;;;;;;;;8334305;28;20049;-85
2022/12/19 11:32:02;;;;;;;16.42;8.30;;;;;;;;;;8335328;28;20056;-83
2022/12/19 11:36:06;;;;;;;18.08;7.03;;;;;;;;;;8334809;28;20407;-86
2022/12/19 11:40:17;;;;;;;16.88;8.10;;;;;;;;;;8343155;28;20053;-89
2022/12/19 11:44:29;;;;;;;22.40;9.98;;;;;;;;;;8344346;28;20047;-86
2022/12/19 11:48:41;;;;;;;24.65;9.82;;;;;;;;;;8345493;28;20135;-87
2022/12/19 11:52:52;;;;;;;24.20;9.70;;;;;;;;;;8339182;28;20044;-85
2022/12/19 11:56:58;;;;;;;18.55;7.13;;;;;;;;;;8355843;28;20153;-83
2022/12/19 12:01:09;;;;;;;20.23;9.23;;;;;;;;;;8347383;28;20053;-84
2022/12/19 12:05:31;;;;;;;;;;;;;;;;;;8342991;28;20057;-85
2022/12/19 12:09:39;;;;;;;21.07;8.27;;;;;;;;;;8353191;28;20403;-86
2022/12/19 12:13:55;;;;;;;22.90;8.52;;;;;;;;;;8337812;28;20052;-86
2022/12/19 12:18:07;;;;;;;26.67;10.45;;;;;;;;;;8351918;28;20544;-84
2022/12/19 12:22:28;;;;;;;25.75;7.55;;;;;;;;;;8350625;28;20079;-90
2022/12/19 12:26:35;;;;;;;19.25;8.05;;;;;;;;;;8348904;28;20127;-88
2022/12/19 12:30:46;;;;;;;20.00;8.70;;;;;;;;;;8346717;28;20053;-83
2022/12/19 12:34:59;;;;;;;22.58;9.20;;;;;;;;;;8351739;28;20041;-88
2022/12/19 12:39:11;;;;;;;11.50;6.03;;;;;;;;;;8362643;28;20056;-86
2022/12/19 12:43:31;;;;;;;20.88;8.57;;;;;;;;;;8363194;28;20547;-87
2022/12/19 12:47:35;;;;;;;24.25;9.25;;;;;;;;;;8362557;28;20049;-84
2022/12/19 12:51:38;;;;;;;34.92;13.50;;;;;;;;;;8362907;28;20036;-88
2022/12/19 12:55:43;;;;;;;33.20;10.18;;;;;;;;;;8362531;28;20041;-88
2022/12/19 12:59:47;;;;;;;25.13;10.02;;;;;;;;;;8335340;28;20412;-87
2022/12/19 13:03:54;;;;;;;83.95;23.67;;;;;;;;;;8340222;28;20059;-84
2022/12/19 13:07:57;;;;;;;112.45;35.45;;;;;;;;;;8331562;28;20052;-83
2022/12/19 13:16:52;;;;;;;20.92;7.22;;;;;;;;;;8330032;28;20045;-89
2022/12/19 13:20:56;;;;;;;41.90;14.75;;;;;;;;;;8351539;28;20564;-81
2022/12/19 13:25:00;;;;;;;164.45;43.85;;;;;;;;;;8361951;28;20499;-83
2022/12/19 13:29:33;;;;;;;66.55;19.95;;;;;;;;;;8362110;28;20451;-81
2022/12/19 13:33:46;;;;;;;77.45;19.63;;;;;;;;;;8348787;28;20859;-83
2022/12/19 13:37:50;;;;;;;32.83;9.82;;;;;;;;;;8363738;28;20052;-82
2022/12/19 13:46:34;;;;;;;83.63;27.08;;;;;;;;;;8350098;28;20752;-88
2022/12/19 13:50:39;;;;;;;50.65;13.95;;;;;;;;;;8347615;28;20607;-83
2022/12/19 13:54:48;;;;;;;25.98;11.00;;;;;;;;;;8341555;28;20710;-82
2022/12/19 13:58:54;;;;;;;17.75;9.70;;;;;;;;;;8363911;28;20132;-84
2022/12/19 14:03:00;;;;;;;75.05;29.83;;;;;;;;;;8361959;28;20041;-82
2022/12/19 14:07:06;;;;;;;55.58;19.08;;;;;;;;;;8343646;28;20052;-87
2022/12/19 14:11:11;;;;;;;25.40;9.90;;;;;;;;;;8355716;28;20095;-81
2022/12/19 14:15:26;;;;;;;23.73;9.48;;;;;;;;;;8350853;28;20102;-84
2022/12/19 14:19:39;;;;;;;27.02;12.73;;;;;;;;;;8352792;28;20037;-84
2022/12/19 14:23:42;;;;;;;20.15;8.25;;;;;;;;;;8341761;28;20057;-83
2022/12/19 14:27:53;;;;;;;39.83;16.00;;;;;;;;;;8345000;28;20080;-83
2022/12/19 14:31:56;;;;;;;48.03;17.47;;;;;;;;;;8342073;28;20057;-89
2022/12/19 14:36:01;;;;;;;34.30;18.08;;;;;;;;;;8355370;28;20091;-83
2022/12/19 14:40:07;;;;;;;11.60;5.40;;;;;;;;;;8345199;28;20041;-84
2022/12/19 14:44:10;;;;;;;20.88;10.88;;;;;;;;;;8355686;28;20048;-83
2022/12/19 14:48:34;;;;;;;17.15;8.95;;;;;;;;;;8349340;28;20048;-83
2022/12/19 14:52:44;;;;;;;23.33;9.38;;;;;;;;;;8353633;28;20049;-90
2022/12/19 14:56:55;;;;;;;37.15;16.77;;;;;;;;;;8344222;28;20144;-85
2022/12/19 15:01:01;;;;;;;34.55;17.70;;;;;;;;;;8336139;28;20045;-84
2022/12/19 15:05:08;;;;;;;28.30;13.50;;;;;;;;;;8338311;28;20059;-83
2022/12/19 15:09:18;;;;;;;38.35;13.35;;;;;;;;;;8331736;28;20525;-84
2022/12/19 15:13:28;;;;;;;34.60;13.50;;;;;;;;;;8335615;28;20045;-87
2022/12/19 15:17:47;;;;;;;23.15;10.38;;;;;;;;;;8327849;28;20099;-88
2022/12/19 15:22:03;;;;;;;29.83;16.80;;;;;;;;;;8354994;28;20095;-84
2022/12/19 15:26:18;;;;;;;50.58;19.30;;;;;;;;;;8338617;28;20057;-87
2022/12/19 15:30:22;;;;;;;28.95;13.95;;;;;;;;;;8333178;28;20136;-85
2022/12/19 15:34:44;;;;;;;57.10;25.08;;;;;;;;;;8341402;28;20047;-88
2022/12/19 15:38:58;;;;;;;40.85;21.50;;;;;;;;;;8356876;28;20130;-89
2022/12/19 15:43:26;;;;;;;19.92;11.45;;;;;;;;;;8336552;28;20049;-85
2022/12/19 15:48:00;;;;;;;45.80;16.42;;;;;;;;;;8326431;28;20057;-83
2022/12/19 15:52:31;;;;;;;40.83;18.25;;;;;;;;;;8326034;28;20083;-84
2022/12/19 15:57:09;;;;;;;33.88;15.90;;;;;;;;;;8344515;28;20552;-87
2022/12/19 16:01:16;;;;;;;21.98;10.68;;;;;;;;;;8335827;28;20057;-87
2022/12/19 16:05:21;;;;;;;10.98;6.10;;;;;;;;;;8331639;28;20539;-87
2022/12/19 16:09:25;;;;;;;27.13;12.07;;;;;;;;;;8331603;28;20045;-83
2022/12/19 16:13:34;;;;;;;32.75;17.13;;;;;;;;;;8329759;28;20124;-89
2022/12/19 16:17:39;;;;;;;35.20;14.73;;;;;;;;;;8331920;28;20069;-86
2022/12/19 16:21:47;;;;;;;26.33;12.27;;;;;;;;;;8334443;28;20049;-85
2022/12/19 16:25:52;;;;;;;38.28;13.85;;;;;;;;;;8328567;28;20049;-88
2022/12/19 16:29:55;;;;;;;37.53;14.88;;;;;;;;;;8328933;28;20456;-88
2022/12/19 16:34:13;;;;;;;33.13;10.00;;;;;;;;;;8329492;28;20069;-89
2022/12/19 16:38:42;;;;;;;23.05;11.13;;;;;;;;;;8336355;28;20060;-90
2022/12/19 16:43:00;;;;;;;31.38;13.07;;;;;;;;;;8338516;28;20141;-88
2022/12/19 16:47:04;;;;;;;30.48;13.95;;;;;;;;;;8331488;28;20041;-89
2022/12/19 16:51:31;;;;;;;31.30;11.55;;;;;;;;;;8339685;28;20047;-89
2022/12/19 16:55:39;;;;;;;24.90;10.93;;;;;;;;;;8333528;28;20049;-89
2022/12/19 16:59:46;;;;;;;;;;;;;;;;;;8328913;28;20063;-89
2022/12/19 17:03:49;;;;;;;44.22;15.43;;;;;;;;;;8337456;28;19924;-90
2022/12/19 17:07:54;;;;;;;18.85;9.52;;;;;;;;;;8330874;28;20472;-90
2022/12/19 17:12:00;;;;;;;30.70;13.20;;;;;;;;;;8331059;28;20049;-88
2022/12/19 17:16:04;;;;;;;31.67;15.27;;;;;;;;;;8330814;28;20045;-88
2022/12/19 17:20:16;;;;;;;54.30;21.23;;;;;;;;;;8336093;28;20049;-88
2022/12/19 17:24:21;;;;;;;25.53;12.60;;;;;;;;;;8327506;28;20053;-90
2022/12/19 17:28:24;;;;;;;36.80;15.10;;;;;;;;;;8334170;28;20056;-87
2022/12/19 17:32:28;;;;;;;29.17;13.15;;;;;;;;;;8325694;28;20046;-88
2022/12/19 17:36:34;;;;;;;38.30;13.68;;;;;;;;;;8346286;28;20055;-85
2022/12/19 17:40:40;;;;;;;35.72;11.10;;;;;;;;;;8354644;28;20673;-89
2022/12/19 17:44:43;;;;;;;22.15;11.77;;;;;;;;;;8360553;28;20052;-85
2022/12/19 17:48:58;;;;;;;35.95;15.00;;;;;;;;;;8361563;28;20056;-91
2022/12/19 17:53:14;;;;;;;34.03;12.30;;;;;;;;;;8342279;28;20473;-89
2022/12/19 17:57:19;;;;;;;44.20;15.43;;;;;;;;;;8350411;28;20078;-88
2022/12/19 18:01:23;;;;;;;34.00;14.50;;;;;;;;;;8361280;28;20045;-90
2022/12/19 18:05:29;;;;;;;36.55;14.13;;;;;;;;;;8358565;28;20052;-90
2022/12/19 18:09:35;;;;;;;42.35;19.02;;;;;;;;;;8360851;28;20053;-85
2022/12/19 18:13:41;;;;;;;50.70;18.05;;;;;;;;;;8348005;28;20530;-92
2022/12/19 18:17:45;;;;;;;46.28;20.75;;;;;;;;;;8361510;28;20552;-88
2022/12/19 18:21:51;;;;;;;59.28;20.88;;;;;;;;;;8361095;28;20041;-90
2022/12/19 18:25:54;;;;;;;46.60;16.98;;;;;;;;;;8358695;28;20459;-91
2022/12/19 18:29:58;;;;;;;56.55;21.38;;;;;;;;;;8350393;28;20054;-90
2022/12/19 18:34:06;;;;;;;29.25;12.98;;;;;;;;;;8367086;28;20056;-88
2022/12/19 18:38:14;;;;;;;23.60;11.93;;;;;;;;;;8351532;28;20064;-89
2022/12/19 18:42:23;;;;;;;52.40;20.40;;;;;;;;;;8364591;28;20060;-90
2022/12/19 18:46:32;;;;;;;77.30;27.88;;;;;;;;;;8355800;28;20061;-89
2022/12/19 18:50:35;;;;;;;68.90;22.45;;;;;;;;;;8360352;28;20128;-83
2022/12/19 18:54:38;;;;;;;71.13;28.20;;;;;;;;;;8357190;28;20544;-86
2022/12/19 18:58:42;;;;;;;55.10;24.20;;;;;;;;;;8358076;28;20519;-86
2022/12/19 19:02:50;;;;;;;158.55;57.53;;;;;;;;;;8363800;28;20454;-84
2022/12/19 19:06:54;;;;;;;67.70;26.33;;;;;;;;;;8366421;28;20404;-88
2022/12/19 19:10:58;;;;;;;106.88;43.08;;;;;;;;;;8366335;28;20048;-83
2022/12/19 19:15:01;;;;;;;112.10;47.35;;;;;;;;;;8366668;28;20412;-86
2022/12/19 19:19:08;;;;;;;35.97;16.92;;;;;;;;;;8366359;28;20090;-83
2022/12/19 19:23:13;;;;;;;62.05;24.75;;;;;;;;;;8356510;28;20069;-89
2022/12/19 19:27:16;;;;;;;38.15;17.95;;;;;;;;;;8347560;28;20496;-90
2022/12/19 19:31:22;;;;;;;95.07;30.50;;;;;;;;;;8350396;28;20044;-90
2022/12/19 19:35:28;;;;;;;70.60;24.52;;;;;;;;;;8350178;28;20045;-89
2022/12/19 19:39:34;;;;;;;115.55;38.50;;;;;;;;;;8366443;28;20057;-88
2022/12/19 19:43:37;;;;;;;19.73;8.88;;;;;;;;;;8360594;28;20411;-84
2022/12/19 19:47:42;;;;;;;103.63;37.63;;;;;;;;;;8348822;28;20102;-91
2022/12/19 19:51:52;;;;;;;41.10;18.95;;;;;;;;;;8345702;28;20047;-91
2022/12/19 19:56:04;;;;;;;37.70;15.77;;;;;;;;;;8349376;28;21756;-92
2022/12/19 20:00:18;;;;;;;34.05;14.73;;;;;;;;;;8337731;28;20048;-92
2022/12/19 20:04:21;;;;;;;64.80;24.40;;;;;;;;;;8363467;28;20044;-90
2022/12/19 20:08:26;;;;;;;93.22;33.67;;;;;;;;;;8347833;28;20045;-83
2022/12/19 20:12:29;;;;;;;48.38;17.17;;;;;;;;;;8353708;28;20053;-84
2022/12/19 20:16:34;;;;;;;62.40;23.52;;;;;;;;;;8361245;28;20053;-91
2022/12/19 20:20:37;;;;;;;71.40;28.73;;;;;;;;;;8355438;28;20408;-83
2022/12/19 20:24:41;;;;;;;29.70;14.23;;;;;;;;;;8353869;28;20052;-92
2022/12/19 20:28:46;;;;;;;36.83;16.63;;;;;;;;;;8360303;28;20144;-89
2022/12/19 20:32:49;;;;;;;44.03;16.92;;;;;;;;;;8354580;28;20079;-83
2022/12/19 20:36:52;;;;;;;58.03;22.00;;;;;;;;;;8360543;28;20045;-84
2022/12/19 20:40:56;;;;;;;70.85;20.75;;;;;;;;;;8361835;28;20045;-83
2022/12/19 20:45:01;;;;;;;38.80;13.80;;;;;;;;;;8357297;28;20465;-82
2022/12/19 20:49:05;;;;;;;45.58;18.70;;;;;;;;;;8348818;28;20052;-90
2022/12/19 20:53:08;;;;;;;52.78;21.33;;;;;;;;;;8361378;28;20044;-86
2022/12/19 20:57:12;;;;;;;64.57;21.40;;;;;;;;;;8360864;28;20051;-89
2022/12/19 21:01:17;;;;;;;46.92;18.95;;;;;;;;;;8363151;28;20036;-89
2022/12/19 21:05:19;;;;;;;62.83;22.63;;;;;;;;;;8348288;28;20049;-91
2022/12/19 21:09:22;;;;;;;88.25;24.65;;;;;;;;;;8349585;28;20070;-83
2022/12/19 21:13:27;;;;;;;53.45;18.48;;;;;;;;;;8349897;28;20087;-89
2022/12/19 21:17:33;;;;;;;19.58;7.85;;;;;;;;;;8362675;28;20047;-90
2022/12/19 21:21:36;;;;;;;52.03;22.20;;;;;;;;;;8362745;28;20060;-84
2022/12/19 21:25:39;;;;;;;49.88;16.98;;;;;;;;;;8362121;28;20131;-87
2022/12/19 21:29:44;;;;;;;31.90;12.88;;;;;;;;;;8362497;28;20055;-89
2022/12/19 21:33:48;;;;;;;59.25;20.98;;;;;;;;;;8362179;28;20106;-83
2022/12/19 21:37:50;;;;;;;35.42;14.80;;;;;;;;;;8362341;28;20449;-90
2022/12/19 21:41:53;;;;;;;50.92;18.67;;;;;;;;;;8362089;28;20128;-90
2022/12/19 21:46:07;;;;;;;41.67;16.33;;;;;;;;;;8361952;28;20084;-90
2022/12/19 21:50:12;;;;;;;52.53;20.42;;;;;;;;;;8363084;28;20041;-81
2022/12/19 21:54:15;;;;;;;14.95;7.43;;;;;;;;;;8362555;28;20116;-84
2022/12/19 21:58:18;;;;;;;37.78;16.63;;;;;;;;;;8362474;28;20072;-82
2022/12/19 22:02:22;;;;;;;41.38;16.00;;;;;;;;;;8368857;28;20056;-89
2022/12/19 22:06:25;;;;;;;38.35;15.00;;;;;;;;;;8368222;28;20056;-88
2022/12/19 22:10:27;;;;;;;28.70;12.95;;;;;;;;;;8368164;28;20045;-90
2022/12/19 22:14:30;;;;;;;33.85;14.45;;;;;;;;;;8368782;28;20087;-86
2022/12/19 22:18:35;;;;;;;36.72;14.88;;;;;;;;;;8354416;28;20069;-90
2022/12/19 22:22:38;;;;;;;30.90;13.82;;;;;;;;;;8367933;28;20069;-89
2022/12/19 22:26:41;;;;;;;42.13;15.38;;;;;;;;;;8367679;28;20639;-82
2022/12/19 22:30:44;;;;;;;44.63;14.98;;;;;;;;;;8367663;28;20060;-89
2022/12/19 22:34:49;;;;;;;32.42;12.70;;;;;;;;;;8368384;28;20053;-81
2022/12/19 22:38:52;;;;;;;42.22;15.68;;;;;;;;;;8355802;28;20045;-90
2022/12/19 22:42:54;;;;;;;26.23;10.15;;;;;;;;;;8367329;28;20083;-86
2022/12/19 22:46:57;;;;;;;29.90;14.73;;;;;;;;;;8360845;28;20401;-83
2022/12/19 22:51:02;;;;;;;45.55;16.58;;;;;;;;;;8360865;28;20542;-90
2022/12/19 22:55:05;;;;;;;35.17;15.00;;;;;;;;;;8354947;28;20044;-90
2022/12/19 22:59:10;;;;;;;27.50;12.82;;;;;;;;;;8366881;28;20051;-83
2022/12/19 23:03:13;;;;;;;28.45;12.90;;;;;;;;;;8366657;28;20041;-84
2022/12/19 23:07:17;;;;;;;41.22;14.48;;;;;;;;;;8366571;28;20473;-89
2022/12/19 23:11:23;;;;;;;36.10;14.93;;;;;;;;;;8366391;28;20049;-87
2022/12/19 23:15:25;;;;;;;33.50;14.88;;;;;;;;;;8366816;28;20045;-91
2022/12/19 23:19:28;;;;;;;24.33;10.88;;;;;;;;;;8358373;28;20041;-81
2022/12/19 23:23:33;;;;;;;36.05;14.77;;;;;;;;;;8361236;28;20045;-89
2022/12/19 23:27:35;;;;;;;33.15;13.35;;;;;;;;;;8366026;28;20124;-84
2022/12/19 23:31:40;;;;;;;35.65;14.85;;;;;;;;;;8365918;28;20071;-90
2022/12/19 23:35:43;;;;;;;42.10;15.93;;;;;;;;;;8365767;28;20452;-82
2022/12/19 23:39:48;;;;;;;34.38;14.48;;;;;;;;;;8365464;28;20134;-89
2022/12/19 23:43:51;;;;;;;36.90;15.50;;;;;;;;;;8357493;28;20041;-86
2022/12/19 23:47:54;;;;;;;39.42;16.33;;;;;;;;;;8360651;28;20382;-87
2022/12/19 23:51:57;;;;;;;33.78;14.40;;;;;;;;;;8357382;28;20053;-82
2022/12/19 23:56:03;;;;;;;32.25;14.02;;;;;;;;;;8360245;28;20128;-85
